Terminal Aerodrome Forecast
Issued by NWS Cleveland, OH

Home | Current Version | Previous Version | Text Only | Print | Product List | Glossary Off
Versions: 1 2 3 4 5 6 7 8 9 10 11 12 13 14 15 16 17 18 19

199
FTUS41 KCLE 181741
TAFERI
TAF
KERI 181741Z 1818/1918 27006KT P6SM BKN035
     FM182100 16008KT P6SM SCT035 BKN200
     FM190500 16015G22KT P6SM SCT250
     FM191400 18015G22KT 6SM -RA BKN025
     FM191700 18014G22KT 4SM -RA BR OVC003=

USA.gov is the U.S. government's official web portal to all federal, state and local government web resources and services.